Time;durP1;ratioP1;P1;durP2;ratioP2;P2;SDS_P1;SDS_P2;PMS_P1;PMS_P2;Temp;Humidity;BMP_temperature;BMP_pressure;BME280_temperature;BME280_humidity;BME280_pressure;Samples;Min_cycle;Max_cycle;Signal;HPM_P1;HPM_P2
2022/01/17 00:00:16;;;;;;;33.58;15.27;;;;;;;5.53;100.00;102747.00;5084445;27;20462;-72
2022/01/17 00:03:03;;;;;;;31.45;13.98;;;;;;;5.54;100.00;102749.56;5090333;28;20040;-73
2022/01/17 00:05:50;;;;;;;29.10;12.32;;;;;;;5.53;100.00;102751.34;5092611;27;20122;-73
2022/01/17 00:08:42;;;;;;;39.63;15.75;;;;;;;5.54;100.00;102762.59;5094637;28;20050;-73
2022/01/17 00:11:28;;;;;;;34.75;14.13;;;;;;;5.56;100.00;102770.34;5088903;28;20142;-73
2022/01/17 00:14:21;;;;;;;28.88;12.75;;;;;;;5.58;100.00;102786.81;5084788;28;20420;-72
2022/01/17 00:17:27;;;;;;;40.38;16.33;;;;;;;5.60;100.00;102782.44;5084327;28;20067;-71
2022/01/17 00:20:17;;;;;;;31.45;15.93;;;;;;;5.58;100.00;102789.44;5088203;28;20481;-73
2022/01/17 00:23:05;;;;;;;54.35;17.02;;;;;;;5.56;100.00;102786.88;5097838;28;20043;-72
2022/01/17 00:25:52;;;;;;;47.08;18.20;;;;;;;5.57;100.00;102795.53;5102871;28;20039;-74
2022/01/17 00:28:39;;;;;;;35.75;11.65;;;;;;;5.63;100.00;102803.19;5103427;28;20055;-72
2022/01/17 00:31:25;;;;;;;33.60;14.65;;;;;;;5.68;100.00;102803.94;5085946;27;20051;-73
2022/01/17 00:34:14;;;;;;;45.72;17.60;;;;;;;5.67;100.00;102799.63;5089976;27;20477;-74
2022/01/17 00:37:01;;;;;;;41.38;15.98;;;;;;;5.67;100.00;102783.97;5085119;27;20116;-71
2022/01/17 00:39:48;;;;;;;34.25;16.40;;;;;;;5.65;100.00;102780.53;5084428;27;20051;-76
2022/01/17 00:42:35;;;;;;;39.05;14.98;;;;;;;5.65;100.00;102776.19;5081446;27;21310;-75
2022/01/17 00:45:27;;;;;;;44.70;18.27;;;;;;;5.65;100.00;102781.41;5085258;27;20055;-72
2022/01/17 00:48:14;;;;;;;37.42;14.27;;;;;;;5.68;100.00;102785.69;5084389;27;20151;-73
2022/01/17 00:51:02;;;;;;;47.25;18.33;;;;;;;5.69;100.00;102795.22;5085474;27;20055;-73
2022/01/17 00:53:50;;;;;;;26.83;15.43;;;;;;;5.70;100.00;102791.72;5072111;27;20040;-72
2022/01/17 00:56:36;;;;;;;25.98;14.40;;;;;;;5.69;100.00;102776.97;5086162;27;20496;-74
2022/01/17 00:59:23;;;;;;;39.28;17.35;;;;;;;5.71;100.00;102783.84;5083432;27;20051;-72
2022/01/17 01:02:10;;;;;;;45.00;16.38;;;;;;;5.68;100.00;102775.25;5086064;27;20769;-74
2022/01/17 01:04:57;;;;;;;43.38;11.25;;;;;;;5.73;100.00;102775.97;5090161;27;20048;-74
2022/01/17 01:07:45;;;;;;;32.20;15.43;;;;;;;5.70;100.00;102789.13;5090144;28;20047;-73
2022/01/17 01:10:32;;;;;;;28.80;13.10;;;;;;;5.70;100.00;102809.97;5084826;27;20052;-74
2022/01/17 01:13:22;;;;;;;24.00;10.68;;;;;;;5.79;100.00;102800.19;5088652;27;20051;-73
2022/01/17 01:16:22;;;;;;;41.65;14.60;;;;;;;5.77;100.00;102793.28;5086132;27;20051;-73
2022/01/17 01:19:26;;;;;;;22.85;13.77;;;;;;;5.77;100.00;102795.91;5087821;27;20280;-75
2022/01/17 01:28:19;;;;;;;33.63;13.93;;;;;;;5.77;100.00;102785.47;5092597;27;20502;-75
2022/01/17 01:31:12;;;;;;;29.23;12.13;;;;;;;5.81;100.00;102787.09;5101681;27;20024;-71
2022/01/17 01:34:04;;;;;;;30.30;13.10;;;;;;;5.82;100.00;102786.19;5110045;27;20048;-74
2022/01/17 01:36:51;;;;;;;34.50;15.80;;;;;;;5.79;100.00;102788.88;5094302;27;20578;-74
2022/01/17 01:39:38;;;;;;;31.00;14.82;;;;;;;5.80;100.00;102782.75;5083359;27;20134;-73
2022/01/17 01:42:29;;;;;;;39.22;15.95;;;;;;;5.79;100.00;102787.13;5079393;27;20052;-72
2022/01/17 01:45:16;;;;;;;52.92;16.65;;;;;;;5.82;100.00;102797.50;5085755;27;20051;-73
2022/01/17 01:48:05;;;;;;;63.90;14.23;;;;;;;5.86;100.00;102800.88;5085168;27;20408;-72
2022/01/17 01:50:52;;;;;;;56.83;16.33;;;;;;;5.81;100.00;102800.13;5082156;27;20059;-73
2022/01/17 01:53:39;;;;;;;48.38;17.15;;;;;;;5.85;100.00;102809.59;5084762;27;20531;-73
2022/01/17 01:56:26;;;;;;;33.85;16.08;;;;;;;5.87;100.00;102815.59;5089378;27;20084;-73
2022/01/17 01:59:16;;;;;;;40.47;16.17;;;;;;;5.82;100.00;102813.16;5088061;27;20063;-73
2022/01/17 02:02:04;;;;;;;58.33;17.80;;;;;;;5.82;100.00;102789.69;5085575;27;20463;-75
2022/01/17 02:04:50;;;;;;;49.63;17.42;;;;;;;5.81;100.00;102787.09;5092387;27;20039;-72
2022/01/17 02:07:38;;;;;;;33.33;16.23;;;;;;;5.86;100.00;102801.72;5084671;27;20044;-73
2022/01/17 02:10:25;;;;;;;56.35;16.63;;;;;;;5.86;100.00;102806.09;5087519;27;20925;-73
2022/01/17 02:13:12;;;;;;;27.90;14.93;;;;;;;5.82;100.00;102799.22;5085714;27;20051;-73
2022/01/17 02:16:04;;;;;;;48.92;17.45;;;;;;;5.82;100.00;102804.44;5086233;27;20051;-72
2022/01/17 02:18:51;;;;;;;33.42;14.48;;;;;;;5.84;100.00;102818.31;5081734;27;20549;-74
2022/01/17 02:21:46;;;;;;;46.97;15.63;;;;;;;5.83;100.00;102817.44;5082192;27;20048;-72
2022/01/17 02:24:33;;;;;;;30.70;9.10;;;;;;;5.81;100.00;102798.38;5083889;27;20506;-72
2022/01/17 02:27:19;;;;;;;71.90;16.40;;;;;;;5.80;100.00;102801.00;5083482;27;20058;-73
2022/01/17 02:30:07;;;;;;;22.98;10.68;;;;;;;5.79;100.00;102800.19;5084600;27;20044;-73
2022/01/17 02:32:54;;;;;;;29.48;13.45;;;;;;;5.80;100.00;102807.09;5087508;27;20094;-72
2022/01/17 02:35:42;;;;;;;34.13;13.82;;;;;;;5.83;100.00;102806.16;5085176;27;20421;-74
2022/01/17 02:38:30;;;;;;;33.65;14.43;;;;;;;5.84;100.00;102802.66;5081371;27;20047;-75
2022/01/17 02:41:18;;;;;;;30.88;12.75;;;;;;;5.82;100.00;102802.72;5083770;27;20044;-75
2022/01/17 02:44:06;;;;;;;16.27;7.57;;;;;;;5.85;100.00;102804.38;5069320;27;20051;-74
2022/01/17 02:46:52;;;;;;;22.88;8.35;;;;;;;5.83;100.00;102811.38;5086822;27;20391;-71
2022/01/17 02:49:40;;;;;;;28.45;13.30;;;;;;;5.82;100.00;102810.53;5084871;28;20187;-73
2022/01/17 02:52:27;;;;;;;61.83;11.35;;;;;;;5.82;100.00;102805.31;5085155;27;20051;-72
2022/01/17 02:55:15;;;;;;;36.20;14.20;;;;;;;5.75;100.00;102798.50;5086832;27;20372;-72
2022/01/17 02:58:01;;;;;;;29.00;13.65;;;;;;;5.61;100.00;102811.06;5089070;27;20043;-73
2022/01/17 03:00:49;;;;;;;40.05;14.77;;;;;;;5.46;100.00;102796.72;5104363;27;20043;-72
2022/01/17 03:03:36;;;;;;;30.70;10.57;;;;;;;5.38;100.00;102791.69;5103806;27;20119;-72
2022/01/17 03:06:23;;;;;;;12.95;8.05;;;;;;;5.37;100.00;102795.22;5102356;27;20052;-73
2022/01/17 03:09:10;;;;;;;32.47;11.55;;;;;;;5.32;100.00;102791.00;5082519;27;20435;-71
2022/01/17 03:11:58;;;;;;;32.25;14.07;;;;;;;5.25;100.00;102777.25;5081881;27;20047;-73
2022/01/17 03:14:45;;;;;;;27.17;13.38;;;;;;;5.13;100.00;102780.16;5081706;27;20666;-73
2022/01/17 03:17:32;;;;;;;24.15;12.68;;;;;;;5.05;100.00;102792.50;5067179;28;20048;-74
2022/01/17 03:20:19;;;;;;;42.50;17.98;;;;;;;5.08;100.00;102808.06;5081759;28;20474;-72
2022/01/17 03:23:07;;;;;;;12.63;8.23;;;;;;;5.13;100.00;102785.38;5088251;27;20051;-74
2022/01/17 03:25:56;;;;;;;43.63;13.30;;;;;;;5.17;100.00;102794.00;5089546;27;20130;-73
2022/01/17 03:28:44;;;;;;;18.90;10.52;;;;;;;5.24;100.00;102793.78;5098792;27;20078;-72
2022/01/17 03:31:31;;;;;;;32.67;11.85;;;;;;;5.16;100.00;102802.69;5102607;27;20765;-73
2022/01/17 03:34:18;;;;;;;36.70;13.02;;;;;;;5.17;100.00;102797.44;5089364;27;20048;-72
2022/01/17 03:37:06;;;;;;;25.75;12.43;;;;;;;5.22;100.00;102795.56;5081566;27;20100;-74
2022/01/17 03:39:53;;;;;;;24.08;10.80;;;;;;;5.16;100.00;102810.50;5054856;27;20054;-72
2022/01/17 03:42:40;;;;;;;19.05;9.35;;;;;;;5.18;100.00;102816.50;5084393;27;20084;-72
2022/01/17 03:45:28;;;;;;;33.70;12.77;;;;;;;5.22;100.00;102815.56;5086095;27;20050;-73
2022/01/17 03:48:15;;;;;;;21.45;11.77;;;;;;;5.27;100.00;102811.97;5084857;27;20493;-74
2022/01/17 03:51:03;;;;;;;29.10;12.65;;;;;;;5.31;100.00;102808.38;5078956;28;20051;-75
2022/01/17 03:53:49;;;;;;;41.60;11.90;;;;;;;5.35;100.00;102812.63;5082243;27;20044;-73
2022/01/17 03:56:36;;;;;;;14.45;8.63;;;;;;;5.39;100.00;102814.25;5078826;27;20050;-75
2022/01/17 03:59:23;;;;;;;19.95;11.13;;;;;;;5.34;100.00;102812.63;5083466;28;20494;-73
2022/01/17 04:02:11;;;;;;;21.85;8.70;;;;;;;5.39;100.00;102802.97;5083557;27;20109;-73
2022/01/17 04:04:58;;;;;;;23.55;10.20;;;;;;;5.42;100.00;102806.34;5081406;27;20047;-73
2022/01/17 04:07:45;;;;;;;18.90;8.05;;;;;;;5.39;100.00;102788.19;5080506;27;21479;-74
2022/01/17 04:10:32;;;;;;;12.52;5.70;;;;;;;5.40;100.00;102800.31;5084324;28;20077;-72
2022/01/17 04:13:19;;;;;;;18.10;8.02;;;;;;;5.40;100.00;102808.13;5085927;28;20047;-73
2022/01/17 04:16:06;;;;;;;12.27;6.18;;;;;;;5.33;100.00;102805.75;5083164;28;20051;-73
2022/01/17 04:18:55;;;;;;;41.70;10.50;;;;;;;5.28;100.00;102836.25;5084017;28;20122;-73
2022/01/17 04:21:42;;;;;;;39.55;11.73;;;;;;;5.27;100.00;102838.00;5080656;28;20090;-72
2022/01/17 04:24:29;;;;;;;21.58;9.35;;;;;;;5.26;100.00;102849.31;5080048;28;20052;-73
2022/01/17 04:27:15;;;;;;;15.32;5.97;;;;;;;5.27;100.00;102861.47;5081333;28;20628;-73
2022/01/17 04:30:05;;;;;;;8.38;6.10;;;;;;;5.20;100.00;102849.47;5082422;28;20060;-72
2022/01/17 04:32:52;;;;;;;20.00;9.60;;;;;;;5.14;100.00;102848.75;5080485;28;20059;-73
2022/01/17 04:35:42;;;;;;;21.02;11.30;;;;;;;5.18;100.00;102846.03;5079456;28;20074;-72
2022/01/17 04:38:28;;;;;;;13.80;8.10;;;;;;;5.19;100.00;102839.94;5084077;28;20039;-72
2022/01/17 04:41:18;;;;;;;26.42;11.05;;;;;;;5.16;100.00;102837.41;5083016;28;20425;-75
2022/01/17 04:47:06;;;;;;;18.70;8.85;;;;;;;4.88;100.00;102832.88;5081562;28;20573;-72
2022/01/17 04:49:53;;;;;;;16.60;8.43;;;;;;;4.87;100.00;102837.25;5080421;28;20047;-74
2022/01/17 04:52:42;;;;;;;18.15;9.43;;;;;;;4.85;100.00;102836.41;5081732;28;20498;-71
2022/01/17 04:55:29;;;;;;;15.30;8.35;;;;;;;4.75;100.00;102826.25;5080825;28;20086;-73
2022/01/17 04:58:17;;;;;;;37.13;9.02;;;;;;;4.64;100.00;102835.19;5083732;28;20052;-72
2022/01/17 05:01:03;;;;;;;15.32;7.32;;;;;;;4.67;100.00;102835.09;5079643;28;20382;-74
2022/01/17 05:03:50;;;;;;;14.35;8.00;;;;;;;4.67;100.00;102850.72;5083757;28;20048;-73
2022/01/17 05:06:37;;;;;;;21.10;5.60;;;;;;;4.57;100.00;102846.59;5083671;28;20536;-72
2022/01/17 05:09:25;;;;;;;20.58;9.80;;;;;;;4.54;100.00;102859.69;5079863;28;20051;-73
2022/01/17 05:12:13;;;;;;;21.45;8.80;;;;;;;4.59;100.00;102857.81;5082048;28;20047;-73
2022/01/17 05:14:59;;;;;;;11.23;7.60;;;;;;;4.65;100.00;102862.91;5083178;28;21973;-74
2022/01/17 05:17:58;;;;;;;17.05;8.60;;;;;;;4.73;100.00;102873.13;5088297;27;20050;-73
2022/01/17 05:20:45;;;;;;;6.57;3.58;;;;;;;4.84;100.00;102878.97;5090597;27;20768;-72
2022/01/17 05:23:32;;;;;;;21.05;8.65;;;;;;;4.83;100.00;102881.59;5097159;27;20044;-74
2022/01/17 05:26:20;;;;;;;23.55;9.00;;;;;;;4.90;100.00;102885.78;5102447;27;20060;-71
2022/01/17 05:29:07;;;;;;;16.65;7.53;;;;;;;4.93;100.00;102885.69;5112706;27;20071;-72
2022/01/17 05:31:54;;;;;;;14.10;7.90;;;;;;;4.98;100.00;102882.09;5099595;27;20046;-71
2022/01/17 05:34:41;;;;;;;23.88;7.75;;;;;;;5.01;100.00;102873.34;5090261;27;20052;-73
2022/01/17 05:37:28;;;;;;;11.68;6.03;;;;;;;4.98;99.26;102871.69;5093799;27;20155;-71
2022/01/17 05:40:17;;;;;;;25.98;11.25;;;;;;;4.94;99.55;102877.88;5092144;27;20048;-72
2022/01/17 05:43:05;;;;;;;15.50;7.97;;;;;;;4.95;100.00;102887.41;5085079;27;20054;-72
2022/01/17 05:45:52;;;;;;;19.48;9.13;;;;;;;5.00;100.00;102888.13;5085152;27;20044;-70
2022/01/17 05:48:39;;;;;;;16.33;8.23;;;;;;;5.08;99.89;102890.59;5083146;27;20089;-71
2022/01/17 05:51:26;;;;;;;21.90;9.15;;;;;;;5.08;99.33;102881.00;5084840;27;20044;-70
2022/01/17 05:54:13;;;;;;;14.68;8.50;;;;;;;5.06;99.61;102877.56;5080037;27;20048;-72
2022/01/17 05:56:59;;;;;;;25.65;7.60;;;;;;;5.11;99.13;102875.75;5082515;27;20035;-71
2022/01/17 05:59:48;;;;;;;19.40;9.40;;;;;;;5.10;99.26;102866.22;5089223;27;20086;-73
2022/01/17 06:02:34;;;;;;;17.90;7.45;;;;;;;5.12;99.31;102861.81;5081270;27;20048;-74
2022/01/17 06:05:21;;;;;;;23.42;9.70;;;;;;;5.12;99.18;102871.38;5083077;27;20047;-69
2022/01/17 06:08:08;;;;;;;18.65;8.75;;;;;;;5.15;98.87;102882.56;5083904;27;20055;-70
2022/01/17 06:10:55;;;;;;;21.35;7.95;;;;;;;5.15;99.03;102866.94;5085531;27;20716;-69
2022/01/17 06:13:44;;;;;;;15.70;6.43;;;;;;;5.16;98.84;102863.44;5084608;27;20044;-70
2022/01/17 06:16:35;;;;;;;13.35;7.53;;;;;;;5.14;99.25;102873.03;5083395;27;20417;-67
2022/01/17 06:19:22;;;;;;;6.25;3.78;;;;;;;5.20;98.93;102865.09;5083660;27;20055;-71
2022/01/17 06:22:10;;;;;;;22.55;7.32;;;;;;;5.20;98.08;102875.53;5081638;27;20104;-72
2022/01/17 06:24:56;;;;;;;17.42;7.57;;;;;;;5.14;98.54;102877.41;5083573;27;20058;-72
2022/01/17 06:27:43;;;;;;;16.92;7.90;;;;;;;5.15;99.18;102887.78;5088619;27;20048;-72
2022/01/17 06:30:30;;;;;;;45.17;9.05;;;;;;;5.13;98.65;102894.78;5088051;27;20053;-71
2022/01/17 06:33:18;;;;;;;9.65;6.45;;;;;;;5.21;98.40;102897.22;5087861;27;20123;-72
2022/01/17 06:36:06;;;;;;;13.88;7.22;;;;;;;5.15;98.31;102893.00;5086581;27;20042;-72
2022/01/17 06:38:52;;;;;;;16.00;6.95;;;;;;;5.12;98.57;102887.88;5098687;27;20039;-72
2022/01/17 06:41:40;;;;;;;8.80;5.85;;;;;;;5.15;98.96;102879.97;5086754;27;20048;-72
2022/01/17 06:44:28;;;;;;;11.05;6.50;;;;;;;5.08;98.97;102881.00;5088470;27;20044;-72
2022/01/17 06:47:15;;;;;;;6.07;5.05;;;;;;;5.01;98.91;102878.56;5088298;27;20585;-71
2022/01/17 06:50:04;;;;;;;18.45;9.15;;;;;;;5.06;99.52;102872.38;5088683;27;20569;-72
2022/01/17 06:52:51;;;;;;;13.30;6.10;;;;;;;4.99;99.16;102869.97;5091402;27;20066;-72
2022/01/17 06:55:38;;;;;;;14.00;7.38;;;;;;;4.92;99.63;102886.63;5088636;27;20139;-73
2022/01/17 06:58:25;;;;;;;15.48;5.93;;;;;;;4.86;99.42;102894.53;5090491;27;20100;-71
2022/01/17 07:01:13;;;;;;;12.40;6.40;;;;;;;4.85;99.96;102908.44;5086484;28;20115;-72
2022/01/17 07:04:01;;;;;;;15.00;8.02;;;;;;;4.77;100.00;102920.75;5074784;28;20252;-74
2022/01/17 07:06:49;;;;;;;9.00;4.28;;;;;;;4.80;100.00;102925.91;5105096;27;20063;-71
2022/01/17 07:09:36;;;;;;;20.75;7.57;;;;;;;4.79;100.00;102940.69;5103758;27;20450;-71
2022/01/17 07:12:23;;;;;;;18.80;7.45;;;;;;;4.85;100.00;102965.72;5100469;27;20052;-72
2022/01/17 07:15:10;;;;;;;23.08;7.57;;;;;;;4.81;100.00;102940.66;5101933;27;20151;-72
2022/01/17 07:17:57;;;;;;;12.63;7.18;;;;;;;4.70;100.00;102940.00;5102309;27;20040;-72
2022/01/17 07:20:44;;;;;;;7.60;5.68;;;;;;;4.77;100.00;102925.97;5100012;27;20419;-71
2022/01/17 07:23:32;;;;;;;16.58;9.50;;;;;;;4.79;100.00;102909.44;5119208;27;20052;-73
2022/01/17 07:26:18;;;;;;;13.57;7.40;;;;;;;4.87;100.00;102907.53;5127089;27;20043;-72
2022/01/17 07:29:08;;;;;;;12.40;8.07;;;;;;;4.98;100.00;102899.50;5109922;27;20136;-72
2022/01/17 07:31:55;;;;;;;14.75;8.85;;;;;;;5.05;100.00;102883.66;5099494;27;20470;-74
2022/01/17 07:34:42;;;;;;;13.40;8.60;;;;;;;5.05;100.00;102895.84;5097888;27;20043;-72
2022/01/17 07:37:28;;;;;;;15.07;8.25;;;;;;;4.87;99.50;102897.13;5094934;28;20979;-75
2022/01/17 07:40:17;;;;;;;27.33;9.63;;;;;;;4.77;99.76;102911.22;5096387;27;20181;-73
2022/01/17 07:43:03;;;;;;;24.73;10.32;;;;;;;4.71;100.00;102920.06;5050541;27;70212;-74
2022/01/17 07:46:05;;;;;;;20.33;10.88;;;;;;;4.63;100.00;102927.16;5097380;27;20975;-73
2022/01/17 07:48:57;;;;;;;15.82;7.90;;;;;;;4.67;100.00;102921.00;4952287;27;67561;-73
2022/01/17 07:51:25;;;;;;;27.90;8.40;;;;;;;4.64;100.00;102921.91;5013594;28;20045;-72
2022/01/17 07:55:44;;;;;;;20.00;8.77;;;;;;;4.63;100.00;102917.59;5140987;27;20365;-73
2022/01/17 07:58:26;;;;;;;17.38;8.52;;;;;;;4.60;100.00;102922.00;5137525;27;20050;-72
2022/01/17 08:00:53;;;;;;;26.38;10.98;;;;;;;4.60;100.00;102917.66;5137877;27;20050;-72
2022/01/17 08:03:19;;;;;;;16.30;8.57;;;;;;;4.61;100.00;102928.94;5141872;27;20043;-72
2022/01/17 08:05:46;;;;;;;20.83;8.35;;;;;;;4.65;100.00;102946.19;5140731;27;20099;-72
2022/01/17 08:08:12;;;;;;;20.02;9.20;;;;;;;4.67;100.00;102949.63;5138459;27;20039;-75
2022/01/17 08:10:39;;;;;;;19.35;10.02;;;;;;;4.72;100.00;102962.50;5133301;27;20035;-74
2022/01/17 08:13:09;;;;;;;25.58;10.13;;;;;;;4.82;100.00;102964.03;5142233;27;20090;-72
2022/01/17 08:15:37;;;;;;;24.25;7.70;;;;;;;4.85;100.00;102958.78;5152074;27;20074;-73
2022/01/17 08:18:05;;;;;;;21.35;6.82;;;;;;;4.89;100.00;102970.84;5153958;27;20035;-71
2022/01/17 08:20:32;;;;;;;23.50;11.75;;;;;;;4.90;100.00;102969.94;5142528;27;20057;-73
2022/01/17 08:22:59;;;;;;;36.20;12.32;;;;;;;4.92;100.00;102973.38;5126933;27;20126;-73
2022/01/17 08:25:26;;;;;;;22.30;10.20;;;;;;;4.96;100.00;102979.38;5130056;27;20035;-73
2022/01/17 08:27:53;;;;;;;15.40;8.75;;;;;;;5.12;100.00;102971.25;5138391;27;20039;-72
2022/01/17 08:30:21;;;;;;;14.30;9.38;;;;;;;5.15;100.00;102973.75;5132493;27;20070;-72
2022/01/17 08:32:48;;;;;;;22.02;10.48;;;;;;;5.15;99.73;102970.31;5121474;27;20046;-75
2022/01/17 08:35:14;;;;;;;20.17;9.75;;;;;;;5.14;100.00;102968.59;5144175;27;20039;-74
2022/01/17 08:37:41;;;;;;;22.55;13.07;;;;;;;5.25;100.00;102956.19;5152720;27;20054;-72
2022/01/17 08:40:09;;;;;;;25.90;10.05;;;;;;;5.48;100.00;102959.97;5124316;27;20047;-76
2022/01/17 08:42:37;;;;;;;27.92;11.32;;;;;;;5.61;99.26;102954.44;5133800;27;20035;-74
2022/01/17 08:45:05;;;;;;;13.35;5.03;;;;;;;5.70;98.32;102945.56;5134708;27;20043;-73
2022/01/17 08:47:33;;;;;;;23.92;12.95;;;;;;;5.78;98.37;102946.25;5135027;27;20198;-74
2022/01/17 08:50:00;;;;;;;20.75;9.38;;;;;;;5.79;98.05;102935.78;5140167;27;20042;-72
2022/01/17 08:52:26;;;;;;;31.13;13.00;;;;;;;5.83;98.34;102937.41;5137585;27;20126;-73
2022/01/17 08:54:54;;;;;;;13.68;8.15;;;;;;;5.86;98.75;102958.19;5141455;27;20062;-74
2022/01/17 08:57:21;;;;;;;26.58;11.38;;;;;;;5.87;98.02;102959.91;5148929;27;20046;-73
2022/01/17 08:59:47;;;;;;;30.27;14.02;;;;;;;5.92;98.44;102957.19;5119441;27;20039;-73
2022/01/17 09:02:14;;;;;;;24.45;10.40;;;;;;;5.94;97.91;102963.25;5140085;27;20067;-72
2022/01/17 09:04:42;;;;;;;14.13;8.23;;;;;;;5.92;97.98;102952.81;5135365;27;20042;-72
2022/01/17 09:07:09;;;;;;;12.88;8.43;;;;;;;5.98;98.39;102959.63;5125651;27;20043;-73
2022/01/17 09:09:37;;;;;;;17.75;9.95;;;;;;;5.97;98.21;102966.63;5125721;27;20073;-72
2022/01/17 09:12:05;;;;;;;19.75;11.65;;;;;;;6.01;98.26;102967.41;5130124;27;20039;-70
2022/01/17 09:14:33;;;;;;;22.50;11.75;;;;;;;6.03;98.11;102986.50;5128943;27;20051;-71
2022/01/17 09:17:00;;;;;;;22.17;10.20;;;;;;;6.09;98.21;102991.53;5127557;27;20043;-70
2022/01/17 09:19:27;;;;;;;18.98;8.20;;;;;;;6.10;98.30;102993.25;5141976;27;20039;-70
2022/01/17 09:21:56;;;;;;;7.60;6.38;;;;;;;6.14;97.70;103000.97;5153270;27;20058;-70
2022/01/17 09:24:22;;;;;;;19.17;8.43;;;;;;;6.19;97.75;103008.69;5134555;27;20062;-71
2022/01/17 09:26:49;;;;;;;15.55;8.57;;;;;;;6.22;97.34;103003.38;5121334;27;20079;-72
2022/01/17 09:29:15;;;;;;;9.68;6.93;;;;;;;6.28;97.58;102984.97;5123228;27;20039;-74
2022/01/17 09:31:42;;;;;;;17.70;8.93;;;;;;;6.40;96.80;102986.34;5123262;27;20043;-77
2022/01/17 09:34:08;;;;;;;15.88;6.90;;;;;;;6.43;96.51;102978.44;5122678;27;20125;-74
2022/01/17 09:36:35;;;;;;;11.68;7.30;;;;;;;6.46;95.92;102980.97;5124254;27;20073;-74
2022/01/17 09:39:05;;;;;;;13.20;7.93;;;;;;;6.65;95.67;102995.22;5121262;27;20034;-73
2022/01/17 09:41:32;;;;;;;29.67;7.97;;;;;;;6.93;95.04;102982.25;5123848;27;20051;-74
2022/01/17 09:44:00;;;;;;;15.80;6.90;;;;;;;7.05;93.85;102990.59;5123149;27;20041;-73
2022/01/17 09:46:34;;;;;;;17.20;9.10;;;;;;;7.19;93.43;102998.88;5130008;27;20058;-74
2022/01/17 09:49:12;;;;;;;7.60;5.93;;;;;;;7.17;93.42;103011.16;5119814;27;20047;-75
2022/01/17 09:52:03;;;;;;;22.73;7.97;;;;;;;7.12;93.19;103023.50;5123856;27;20110;-72
2022/01/17 09:54:35;;;;;;;11.35;5.47;;;;;;;7.05;93.88;103036.78;5112418;27;20059;-73
2022/01/17 09:57:06;;;;;;;8.10;4.43;;;;;;;7.02;94.22;103035.09;5124534;27;20043;-74
2022/01/17 09:59:33;;;;;;;13.45;6.82;;;;;;;7.12;94.54;103054.00;5135744;27;20050;-72
2022/01/17 10:02:00;;;;;;;16.77;9.55;;;;;;;7.15;93.79;103066.06;5123915;27;20053;-74
2022/01/17 10:04:26;;;;;;;11.40;7.00;;;;;;;7.07;93.87;103048.91;5135458;27;20051;-73
2022/01/17 10:06:54;;;;;;;19.10;4.63;;;;;;;7.05;93.50;103068.16;5103174;27;20329;-74
2022/01/17 10:09:24;;;;;;;5.38;4.15;;;;;;;7.02;93.45;103042.94;5106901;27;20083;-73
2022/01/17 10:12:09;;;;;;;15.38;6.13;;;;;;;7.00;93.59;103018.63;5125377;27;20377;-72
2022/01/17 10:14:38;;;;;;;13.60;5.93;;;;;;;7.01;93.73;103020.34;5125509;27;20074;-73
2022/01/17 10:17:08;;;;;;;8.40;3.75;;;;;;;6.97;93.40;103023.94;5102008;27;20425;-75
2022/01/17 10:19:35;;;;;;;15.35;7.00;;;;;;;6.99;93.64;103016.03;5121865;27;20046;-73
2022/01/17 10:22:07;;;;;;;12.80;5.68;;;;;;;7.06;93.50;103020.22;5118570;27;20088;-70
2022/01/17 10:24:42;;;;;;;8.25;4.30;;;;;;;7.12;92.82;103028.72;5107651;27;20816;-72
2022/01/17 10:27:24;;;;;;;5.70;4.00;;;;;;;7.10;92.47;103020.06;5115908;27;20114;-71
2022/01/17 10:35:18;;;;;;;18.90;5.85;;;;;;;7.19;92.44;103041.56;5123855;27;20046;-73
2022/01/17 10:37:56;;;;;;;14.93;6.38;;;;;;;7.21;92.72;103047.63;5120881;27;20059;-72
2022/01/17 10:40:23;;;;;;;17.27;4.75;;;;;;;7.26;92.31;103056.19;5122735;27;20047;-72
2022/01/17 10:42:51;;;;;;;11.57;3.28;;;;;;;7.23;92.07;103051.03;5123314;27;20041;-72
2022/01/17 10:45:20;;;;;;;28.48;4.00;;;;;;;7.18;91.84;103050.31;5121686;27;20035;-71
2022/01/17 10:47:47;;;;;;;14.13;2.60;;;;;;;7.15;92.13;103055.63;5119247;27;20108;-71
2022/01/17 10:50:16;;;;;;;18.77;5.45;;;;;;;7.12;91.94;103038.31;5127836;27;20073;-71
2022/01/17 10:52:44;;;;;;;7.70;4.40;;;;;;;7.11;92.38;103041.84;5126562;27;20043;-71
2022/01/17 10:55:14;;;;;;;10.30;2.60;;;;;;;7.06;91.58;103049.81;5123005;27;20062;-73
2022/01/17 10:57:43;;;;;;;9.48;4.18;;;;;;;7.09;92.33;103072.38;5114527;27;20036;-70
2022/01/17 11:00:13;;;;;;;8.05;4.30;;;;;;;7.06;92.12;103072.47;5120344;27;20118;-71
2022/01/17 11:02:45;;;;;;;6.10;4.32;;;;;;;7.09;92.59;103070.63;5108859;27;20142;-72
2022/01/17 11:05:13;;;;;;;8.57;4.40;;;;;;;7.05;92.13;103078.59;5118875;27;20080;-73
2022/01/17 11:07:44;;;;;;;4.25;2.42;;;;;;;7.08;91.86;103079.38;5125103;27;20058;-72
2022/01/17 11:10:19;;;;;;;9.55;5.78;;;;;;;7.12;91.84;103085.38;5111571;27;20457;-71
2022/01/17 11:12:56;;;;;;;10.82;5.07;;;;;;;7.17;91.65;103086.97;5125926;27;20039;-72
2022/01/17 11:15:26;;;;;;;7.00;3.85;;;;;;;7.16;91.74;103093.09;5138110;27;20036;-73
2022/01/17 11:17:56;;;;;;;7.60;3.92;;;;;;;7.17;91.79;103084.34;5129190;27;20095;-72
2022/01/17 11:20:25;;;;;;;8.85;4.50;;;;;;;7.18;91.77;103080.84;5141729;27;20108;-72
2022/01/17 11:22:53;;;;;;;13.57;5.10;;;;;;;7.26;91.83;103071.03;5119149;27;20492;-71
2022/01/17 11:25:22;;;;;;;12.27;5.75;;;;;;;7.29;91.61;103074.41;5114909;27;20055;-72
2022/01/17 11:27:49;;;;;;;29.00;5.68;;;;;;;7.35;92.06;103070.72;5124086;27;20042;-74
2022/01/17 11:30:16;;;;;;;8.57;3.78;;;;;;;7.47;90.73;103083.44;5118441;27;20122;-72
2022/01/17 11:32:45;;;;;;;15.48;4.60;;;;;;;7.54;91.21;103074.53;5122810;27;20092;-72
2022/01/17 11:35:13;;;;;;;6.05;3.33;;;;;;;7.47;91.25;103073.00;5127228;27;20053;-74
2022/01/17 11:37:43;;;;;;;6.07;2.72;;;;;;;7.47;91.19;103068.59;5118843;27;20045;-72
2022/01/17 11:40:11;;;;;;;15.70;5.32;;;;;;;7.50;91.06;103065.06;5104462;27;20046;-73
2022/01/17 11:42:40;;;;;;;13.40;4.38;;;;;;;7.45;91.13;103064.31;5120142;27;20035;-74
2022/01/17 11:45:35;;;;;;;6.50;3.05;;;;;;;7.51;91.20;103072.03;5121729;27;20071;-73
2022/01/17 11:48:17;;;;;;;21.40;4.20;;;;;;;7.52;90.81;103071.09;5117928;27;20050;-73
2022/01/17 11:50:48;;;;;;;13.63;4.40;;;;;;;7.56;91.36;103077.97;5112175;27;20091;-73
2022/01/17 11:53:50;;;;;;;10.32;4.00;;;;;;;7.56;91.45;103083.19;5125561;27;20050;-74
2022/01/17 11:56:40;;;;;;;8.40;4.05;;;;;;;7.60;90.96;103063.88;5115594;27;20051;-76
2022/01/17 11:59:31;;;;;;;15.07;2.92;;;;;;;7.52;90.31;103066.72;5123553;27;20042;-73
2022/01/17 12:02:15;;;;;;;6.78;3.38;;;;;;;7.59;91.16;103057.78;5119654;27;20047;-72
2022/01/17 12:05:35;;;;;;;6.68;3.15;;;;;;;7.75;90.86;103055.56;5124626;27;20066;-74
2022/01/17 12:08:09;;;;;;;11.35;3.25;;;;;;;7.69;90.48;103050.50;5119201;27;20150;-72
2022/01/17 12:10:41;;;;;;;19.40;3.83;;;;;;;7.64;90.76;103055.03;5122137;27;20888;-73
2022/01/17 12:13:38;;;;;;;6.57;3.50;;;;;;;7.66;90.89;103055.84;5115895;27;20066;-72
2022/01/17 12:16:10;;;;;;;6.80;1.90;;;;;;;7.73;90.99;103044.28;5122662;27;20046;-74
2022/01/17 12:18:39;;;;;;;7.10;4.07;;;;;;;7.70;90.93;103039.16;5116731;27;20058;-72
2022/01/17 12:21:23;;;;;;;9.23;3.08;;;;;;;7.60;91.47;103028.13;5117150;27;20046;-71
2022/01/17 12:23:50;;;;;;;4.72;3.25;;;;;;;7.53;91.50;103025.72;5118761;27;20046;-73
2022/01/17 12:26:30;;;;;;;3.05;2.10;;;;;;;7.47;92.42;103052.06;5124315;27;20318;-72
2022/01/17 12:28:58;;;;;;;13.65;4.75;;;;;;;7.43;93.22;103079.19;5105809;27;20075;-71
2022/01/17 12:31:38;;;;;;;5.30;3.58;;;;;;;7.37;93.42;103084.63;5120359;27;20106;-70
2022/01/17 12:34:23;;;;;;;6.32;2.80;;;;;;;7.26;94.32;103084.94;5109415;27;20128;-72
2022/01/17 12:36:52;;;;;;;5.85;2.83;;;;;;;7.21;94.76;103083.34;5121563;27;20063;-71
2022/01/17 12:39:20;;;;;;;24.17;5.28;;;;;;;7.23;95.07;103090.22;5120856;27;20093;-70